Terminal Aerodrome Forecast
Issued by NWS Quad Cities IA IL

Home | Current Version | Previous Version | Text Only | Print | Product List | Glossary On
Versions: 1 2 3 4 5 6 7 8 9 10 11 12 13 14 15 16 17 18
000
FTUS43 KDVN 040520
TAFDBQ
TAF
KDBQ 040520Z 0406/0506 30012KT P6SM SCT100
     FM040900 35013KT P6SM SKC
     FM041500 34015G25KT P6SM SCT040
     FM050200 34006KT P6SM SKC=

USA.gov is the U.S. government's official web portal to all federal, state and local government web resources and services.